Time;durP1;ratioP1;P1;durP2;ratioP2;P2;SDS_P1;SDS_P2;PMS_P1;PMS_P2;Temp;Humidity;BMP_temperature;BMP_pressure;BME280_temperature;BME280_humidity;BME280_pressure;Samples;Min_cycle;Max_cycle;Signal;HPM_P1;HPM_P2
2022/04/09 04:22:34;;;;;;;18.08;9.00;;;;;;;0.65;100.00;99676.56;5129896;27;20641;-76
2022/04/09 04:25:02;;;;;;;19.05;10.10;;;;;;;0.79;100.00;99691.16;5112029;28;20119;-76
2022/04/09 04:27:28;;;;;;;22.30;10.43;;;;;;;0.85;100.00;99695.06;5130128;28;20032;-76
2022/04/09 04:30:01;;;;;;;26.25;11.05;;;;;;;0.70;100.00;99676.16;5111491;28;20078;-74
2022/04/09 04:32:28;;;;;;;17.83;9.07;;;;;;;0.92;100.00;99707.56;5128058;28;20027;-74
2022/04/09 04:34:55;;;;;;;21.77;10.45;;;;;;;0.93;100.00;99717.09;5128822;28;20432;-75
2022/04/09 04:37:21;;;;;;;18.98;9.20;;;;;;;0.92;100.00;99711.97;5128420;28;20077;-76
2022/04/09 04:39:47;;;;;;;19.73;10.45;;;;;;;1.01;100.00;99729.59;5111189;28;20035;-75
2022/04/09 04:42:13;;;;;;;22.40;10.95;;;;;;;1.05;100.00;99736.25;5127832;28;20097;-76
2022/04/09 04:44:39;;;;;;;21.63;11.15;;;;;;;1.08;100.00;99741.25;5128152;28;20053;-74
2022/04/09 04:47:05;;;;;;;23.15;10.15;;;;;;;1.13;100.00;99748.75;5127960;28;20572;-76
2022/04/09 04:49:31;;;;;;;18.30;9.73;;;;;;;1.13;100.00;99752.19;5128093;28;20035;-75
2022/04/09 04:52:03;;;;;;;22.50;9.45;;;;;;;1.26;100.00;99754.66;5127708;28;20092;-75
2022/04/09 04:54:32;;;;;;;19.40;10.13;;;;;;;1.24;100.00;99764.41;5127885;28;20031;-76
2022/04/09 04:56:58;;;;;;;20.75;10.48;;;;;;;1.23;100.00;99768.84;5128036;28;20110;-77
2022/04/09 04:59:24;;;;;;;20.17;10.35;;;;;;;1.23;100.00;99768.84;5111047;28;20042;-76
2022/04/09 05:01:50;;;;;;;24.58;10.57;;;;;;;1.31;100.00;99781.34;5127809;28;20032;-75
2022/04/09 05:04:17;;;;;;;19.50;10.95;;;;;;;1.29;100.00;99789.34;5127903;28;20059;-77
2022/04/09 05:06:55;;;;;;;21.08;10.48;;;;;;;1.27;100.00;99796.50;5128248;28;20437;-76
2022/04/09 05:09:22;;;;;;;23.70;10.95;;;;;;;1.29;100.00;99797.22;5128198;28;20448;-77
2022/04/09 05:11:53;;;;;;;27.50;12.13;;;;;;;1.34;100.00;99791.59;5131004;28;20051;-77
2022/04/09 05:14:23;;;;;;;23.60;11.63;;;;;;;1.36;100.00;99795.75;5128451;28;20037;-76
2022/04/09 05:16:53;;;;;;;20.02;10.68;;;;;;;1.47;100.00;99807.16;5111036;28;20110;-77
2022/04/09 05:19:19;;;;;;;19.55;9.98;;;;;;;1.46;100.00;99806.34;5127494;28;20392;-77
2022/04/09 05:21:50;;;;;;;19.98;10.82;;;;;;;1.52;100.00;99807.63;5128029;28;20023;-77
2022/04/09 05:24:18;;;;;;;23.85;11.95;;;;;;;1.60;100.00;99808.66;5128012;28;20039;-77
2022/04/09 05:26:45;;;;;;;24.02;11.38;;;;;;;1.65;100.00;99816.16;5110968;28;20126;-77
2022/04/09 05:29:11;;;;;;;21.48;11.50;;;;;;;1.60;100.00;99827.03;5127889;28;20063;-77
2022/04/09 05:31:36;;;;;;;25.67;11.25;;;;;;;1.67;100.00;99839.66;5127857;28;20040;-77
2022/04/09 05:34:02;;;;;;;25.30;11.35;;;;;;;1.63;100.00;99844.34;5113568;28;20039;-77
2022/04/09 05:36:31;;;;;;;25.75;11.60;;;;;;;1.65;100.00;99845.06;5113980;28;20044;-77
2022/04/09 05:39:00;;;;;;;23.65;10.45;;;;;;;1.62;100.00;99847.91;5114419;28;20092;-77
2022/04/09 05:41:27;;;;;;;22.23;11.20;;;;;;;1.69;100.00;99851.69;5115284;28;20430;-77
2022/04/09 05:43:54;;;;;;;27.77;12.25;;;;;;;1.73;100.00;99857.53;5113902;28;20472;-77
2022/04/09 05:46:22;;;;;;;24.70;11.93;;;;;;;1.72;100.00;99867.22;5113666;28;20099;-77
2022/04/09 05:48:48;;;;;;;21.42;10.80;;;;;;;1.77;100.00;99865.06;5114683;28;20100;-77
2022/04/09 05:51:14;;;;;;;23.67;12.25;;;;;;;1.81;100.00;99874.31;5098185;28;20039;-78
2022/04/09 05:53:44;;;;;;;21.27;11.55;;;;;;;1.90;100.00;99883.25;5114631;28;20043;-77
2022/04/09 05:56:11;;;;;;;26.10;13.90;;;;;;;1.99;100.00;99892.16;5114707;28;20035;-77
2022/04/09 05:58:42;;;;;;;21.90;11.95;;;;;;;2.11;100.00;99894.63;5114920;28;20107;-70
2022/04/09 06:01:10;;;;;;;23.30;11.48;;;;;;;2.16;100.00;99905.59;5112998;28;20415;-71
2022/04/09 06:03:36;;;;;;;19.88;10.63;;;;;;;2.15;100.00;99909.19;5078711;28;20027;-70
2022/04/09 06:06:03;;;;;;;21.52;10.75;;;;;;;2.22;100.00;99909.50;5112894;28;20044;-74
2022/04/09 06:08:35;;;;;;;21.63;11.32;;;;;;;2.30;100.00;99916.72;5097019;28;20043;-77
2022/04/09 06:11:09;;;;;;;22.80;11.65;;;;;;;2.31;100.00;99913.13;5112830;28;20413;-74
2022/04/09 06:13:36;;;;;;;20.98;11.63;;;;;;;2.31;100.00;99913.97;5112509;28;20050;-73
2022/04/09 06:16:06;;;;;;;17.92;10.88;;;;;;;2.35;100.00;99917.19;5095650;28;20027;-75
2022/04/09 06:18:33;;;;;;;20.48;11.40;;;;;;;2.38;100.00;99922.19;5112651;28;20059;-73
2022/04/09 06:20:58;;;;;;;25.02;11.82;;;;;;;2.44;100.00;99924.28;5112632;28;20071;-74
2022/04/09 06:23:24;;;;;;;21.05;12.02;;;;;;;2.50;100.00;99920.31;5095222;28;20046;-73
2022/04/09 06:25:49;;;;;;;22.38;12.32;;;;;;;2.61;100.00;99928.97;5112509;28;20035;-74
2022/04/09 06:28:18;;;;;;;22.80;11.98;;;;;;;2.63;100.00;99926.22;5112356;28;20475;-74
2022/04/09 06:30:46;;;;;;;25.52;13.07;;;;;;;2.82;100.00;99936.00;5112244;28;20600;-74
2022/04/09 06:33:21;;;;;;;19.95;11.07;;;;;;;2.88;100.00;99944.19;5112195;28;20074;-75
2022/04/09 06:35:48;;;;;;;23.70;12.68;;;;;;;3.04;100.00;99945.50;5112143;28;20115;-75
2022/04/09 06:38:17;;;;;;;20.73;12.40;;;;;;;3.08;100.00;99949.53;5112275;28;20040;-75
2022/04/09 06:40:43;;;;;;;22.13;11.77;;;;;;;3.17;100.00;99943.47;5112132;28;20027;-74
2022/04/09 06:43:10;;;;;;;21.75;11.60;;;;;;;3.33;100.00;99957.00;5111975;28;20048;-74
2022/04/09 06:45:35;;;;;;;19.33;12.05;;;;;;;3.31;100.00;99956.25;5112827;28;20052;-73
2022/04/09 06:48:34;;;;;;;18.25;10.82;;;;;;;3.33;100.00;99953.53;5112301;28;20036;-74
2022/04/09 06:51:22;;;;;;;21.75;12.45;;;;;;;3.44;100.00;99962.13;5080954;28;20046;-75
2022/04/09 06:53:49;;;;;;;22.38;11.77;;;;;;;3.45;100.00;99979.59;5111917;28;20046;-74
2022/04/09 06:56:15;;;;;;;18.10;10.00;;;;;;;3.54;100.00;99975.34;5112026;28;20032;-75
2022/04/09 06:58:40;;;;;;;20.08;10.75;;;;;;;3.60;100.00;99972.16;5111898;28;20512;-74
2022/04/09 07:01:06;;;;;;;20.75;11.93;;;;;;;3.63;100.00;99971.06;5112036;28;20488;-74
2022/04/09 07:03:36;;;;;;;20.55;10.93;;;;;;;3.66;100.00;99981.34;5111726;28;20420;-74
2022/04/09 07:06:01;;;;;;;21.90;11.50;;;;;;;3.73;100.00;99972.75;5113099;28;20050;-74
2022/04/09 07:08:27;;;;;;;17.63;10.80;;;;;;;3.78;100.00;99973.19;5113112;28;20031;-74
2022/04/09 07:10:52;;;;;;;22.27;11.70;;;;;;;3.57;100.00;99990.03;5111675;28;20481;-73
2022/04/09 07:13:18;;;;;;;18.48;11.45;;;;;;;3.84;100.00;99984.13;5094233;28;20040;-73
2022/04/09 07:15:44;;;;;;;19.17;11.10;;;;;;;3.96;100.00;99993.56;5112830;27;20042;-73
2022/04/09 07:18:09;;;;;;;20.13;11.68;;;;;;;4.05;100.00;99990.97;5112893;28;20080;-73
2022/04/09 07:20:36;;;;;;;21.95;12.02;;;;;;;4.12;100.00;99993.03;5112971;28;20511;-73
2022/04/09 07:23:02;;;;;;;18.63;11.70;;;;;;;4.21;100.00;99989.56;5111908;28;20668;-73
2022/04/09 07:25:32;;;;;;;18.38;10.52;;;;;;;4.18;100.00;99997.78;5113880;28;20449;-74
2022/04/09 07:27:58;;;;;;;20.60;12.55;;;;;;;4.25;100.00;100007.63;5113106;28;20055;-73
2022/04/09 07:30:24;;;;;;;19.83;10.88;;;;;;;4.18;99.86;100009.16;5112809;28;20477;-73
2022/04/09 07:32:50;;;;;;;23.02;10.43;;;;;;;4.17;100.00;100004.00;5112425;28;20475;-73
2022/04/09 07:35:16;;;;;;;19.33;11.00;;;;;;;4.19;100.00;100017.88;5112568;28;20028;-73
2022/04/09 07:37:44;;;;;;;17.60;11.10;;;;;;;4.14;98.77;100022.72;5112789;28;20138;-74
2022/04/09 07:40:10;;;;;;;;;;;;;;;4.27;100.00;100018.03;5113110;28;20088;-73
2022/04/09 07:42:37;;;;;;;19.83;9.73;;;;;;;4.26;98.47;100021.63;5111325;28;20379;-73
2022/04/09 07:45:03;;;;;;;18.60;10.35;;;;;;;4.25;96.90;100030.53;5112900;28;20036;-73
2022/04/09 07:47:30;;;;;;;18.73;11.20;;;;;;;4.20;99.16;100035.38;5113528;28;20085;-74
2022/04/09 07:49:55;;;;;;;19.15;11.07;;;;;;;4.16;99.29;100036.59;5112100;28;20047;-73
2022/04/09 07:52:21;;;;;;;21.45;12.38;;;;;;;4.22;98.65;100046.59;5111041;28;20047;-74
2022/04/09 07:54:46;;;;;;;20.83;11.15;;;;;;;4.20;97.84;100044.09;5112112;28;20057;-73
2022/04/09 07:57:12;;;;;;;21.70;11.23;;;;;;;3.95;99.14;100044.63;5111778;28;20035;-73
2022/04/09 07:59:38;;;;;;;17.35;10.63;;;;;;;4.02;98.85;100038.66;5112081;28;20031;-73
2022/04/09 08:02:03;;;;;;;17.20;10.38;;;;;;;4.16;97.31;100033.97;5110545;28;20035;-74
2022/04/09 08:04:29;;;;;;;21.52;11.30;;;;;;;4.31;100.00;100046.63;5112076;28;20046;-73
2022/04/09 08:06:55;;;;;;;16.15;10.10;;;;;;;4.45;100.00;100048.00;5111966;28;20046;-73
2022/04/09 08:09:20;;;;;;;17.35;10.10;;;;;;;4.56;98.42;100053.16;5112264;28;20043;-73
2022/04/09 08:11:46;;;;;;;19.77;11.18;;;;;;;4.65;96.98;100053.28;5111630;28;20116;-73
2022/04/09 08:14:12;;;;;;;17.23;11.25;;;;;;;4.76;95.71;100048.69;5111926;28;20035;-73
2022/04/09 08:16:38;;;;;;;20.00;11.63;;;;;;;4.85;96.92;100052.28;5111877;28;20028;-74
2022/04/09 08:19:04;;;;;;;16.75;10.50;;;;;;;5.04;96.09;100049.63;5111949;28;20032;-73
2022/04/09 08:21:30;;;;;;;20.65;10.82;;;;;;;5.13;93.45;100048.75;5111688;28;20047;-74
2022/04/09 08:23:55;;;;;;;18.00;10.35;;;;;;;5.41;93.74;100040.88;5112000;28;20038;-74
2022/04/09 08:26:21;;;;;;;15.65;10.15;;;;;;;5.61;95.09;100047.75;5093807;28;20043;-75
2022/04/09 08:28:47;;;;;;;17.95;10.20;;;;;;;5.69;90.96;100045.22;5112071;28;20031;-74
2022/04/09 08:31:12;;;;;;;17.42;9.32;;;;;;;5.90;92.48;100052.06;5111817;28;20064;-74
2022/04/09 08:33:40;;;;;;;15.38;9.60;;;;;;;5.96;93.43;100048.84;5111321;28;20040;-75
2022/04/09 08:36:06;;;;;;;;;;;;;;;6.09;89.17;100045.84;5111345;28;20114;-74
2022/04/09 08:38:32;;;;;;;14.60;9.80;;;;;;;6.27;87.42;100037.94;5111751;28;19957;-74
2022/04/09 08:41:00;;;;;;;15.50;8.57;;;;;;;6.46;87.88;100041.28;5112784;28;20040;-74
2022/04/09 08:43:26;;;;;;;17.17;9.15;;;;;;;6.45;86.38;100049.34;5110431;28;20055;-74
2022/04/09 08:45:53;;;;;;;13.40;8.10;;;;;;;6.04;86.21;100051.59;5111784;28;20512;-74
2022/04/09 08:48:21;;;;;;;21.38;9.77;;;;;;;6.24;86.94;100050.47;5093505;28;20110;-74
2022/04/09 08:50:47;;;;;;;15.05;8.60;;;;;;;6.18;86.93;100053.72;5111479;28;20063;-73
2022/04/09 08:53:13;;;;;;;13.90;8.30;;;;;;;6.25;86.66;100057.41;5111244;28;20042;-74
2022/04/09 08:55:40;;;;;;;12.38;8.52;;;;;;;6.07;85.54;100058.41;5111400;28;20035;-75
2022/04/09 08:58:06;;;;;;;14.70;7.90;;;;;;;5.88;86.59;100056.69;5111500;28;20066;-73
2022/04/09 09:00:32;;;;;;;16.42;8.90;;;;;;;5.86;85.87;100053.31;5111517;28;20476;-74
2022/04/09 09:03:01;;;;;;;16.60;8.38;;;;;;;6.08;86.40;100060.06;5111140;28;20062;-74
2022/04/09 09:05:40;;;;;;;14.35;7.72;;;;;;;6.06;83.96;100062.84;5111427;28;20075;-73
2022/04/09 09:08:07;;;;;;;14.20;7.65;;;;;;;6.43;84.09;100067.19;5111956;28;20051;-74
2022/04/09 09:10:34;;;;;;;13.90;7.78;;;;;;;6.51;81.75;100061.97;5115264;28;20032;-73
2022/04/09 09:13:05;;;;;;;15.10;7.63;;;;;;;6.57;83.13;100056.06;5114941;28;20066;-74
2022/04/09 09:15:46;;;;;;;12.75;6.95;;;;;;;6.76;83.60;100061.19;5115301;28;20373;-73
2022/04/09 09:18:21;;;;;;;12.25;7.68;;;;;;;6.96;82.46;100061.03;5106116;28;20077;-72
2022/04/09 09:20:49;;;;;;;11.00;7.53;;;;;;;7.02;82.64;100057.75;5094556;28;20063;-74
2022/04/09 09:23:20;;;;;;;10.63;6.28;;;;;;;7.20;78.69;100065.66;5094651;28;20050;-73
2022/04/09 09:25:51;;;;;;;12.30;6.97;;;;;;;7.45;78.45;100072.78;5114291;28;20074;-73
2022/04/09 09:28:28;;;;;;;11.27;6.47;;;;;;;7.88;79.85;100066.50;5114925;28;20063;-73
2022/04/09 09:30:54;;;;;;;9.32;5.93;;;;;;;8.13;74.37;100071.88;5113502;28;20039;-73
2022/04/09 09:33:20;;;;;;;15.02;7.53;;;;;;;7.99;74.37;100083.13;5114153;28;20042;-73
2022/04/09 09:35:48;;;;;;;15.25;5.90;;;;;;;8.13;73.14;100083.34;5114353;28;20040;-74
2022/04/09 09:38:18;;;;;;;8.88;5.82;;;;;;;8.54;74.62;100075.50;5115161;28;20491;-72
2022/04/09 09:40:43;;;;;;;13.48;6.75;;;;;;;8.95;75.33;100086.97;5114759;28;20036;-73
2022/04/09 09:43:17;;;;;;;9.05;6.05;;;;;;;9.08;73.15;100090.97;5114388;28;20064;-73
2022/04/09 09:45:44;;;;;;;11.30;5.15;;;;;;;9.27;67.70;100087.13;5114496;28;20035;-72
2022/04/09 09:48:26;;;;;;;10.68;5.18;;;;;;;9.39;69.06;100091.91;5114537;28;20035;-72
2022/04/09 09:50:53;;;;;;;9.40;5.90;;;;;;;9.60;68.82;100082.56;5113088;28;20115;-72
2022/04/09 09:53:31;;;;;;;7.70;5.30;;;;;;;10.03;64.95;100100.66;5114275;28;20066;-73
2022/04/09 09:55:58;;;;;;;13.20;5.00;;;;;;;9.85;65.39;100096.63;5114556;28;20406;-72
2022/04/09 09:58:25;;;;;;;6.93;4.72;;;;;;;9.57;61.26;100096.19;5114302;28;20545;-73
2022/04/09 10:00:51;;;;;;;13.73;5.00;;;;;;;9.36;62.48;100099.38;5114471;28;20428;-73
2022/04/09 10:03:19;;;;;;;8.52;4.65;;;;;;;9.21;63.75;100100.06;5113692;28;20059;-72
2022/04/09 10:05:47;;;;;;;13.75;5.28;;;;;;;8.92;66.71;100107.72;5114116;28;20499;-72
2022/04/09 10:08:13;;;;;;;11.60;4.90;;;;;;;9.50;66.94;100110.16;5114176;28;20032;-73
2022/04/09 10:10:41;;;;;;;9.50;4.88;;;;;;;10.34;64.80;100118.53;5113869;28;20038;-73
2022/04/09 10:13:07;;;;;;;;;;;;;;;10.56;62.22;100117.75;5114361;28;20457;-73
2022/04/09 10:15:33;;;;;;;11.40;4.22;;;;;;;10.47;63.98;100117.94;5114037;28;19969;-73
2022/04/09 10:18:01;;;;;;;8.32;4.07;;;;;;;10.45;58.71;100118.13;5113858;28;20052;-71
2022/04/09 10:20:29;;;;;;;9.80;3.83;;;;;;;10.24;59.77;100123.25;5114120;28;20423;-70
2022/04/09 10:22:59;;;;;;;12.77;4.70;;;;;;;10.22;59.43;100119.88;5113587;28;20139;-73
2022/04/09 10:25:28;;;;;;;7.13;4.32;;;;;;;10.18;60.33;100122.06;5113898;28;20031;-73
2022/04/09 10:28:00;;;;;;;10.00;5.93;;;;;;;10.50;60.31;100118.44;5113987;28;20024;-73
2022/04/09 10:30:26;;;;;;;12.77;6.35;;;;;;;9.94;61.71;100123.00;5113764;28;20070;-73
2022/04/09 10:32:59;;;;;;;16.50;7.28;;;;;;;9.44;62.84;100118.81;5113412;28;20057;-73
2022/04/09 10:35:38;;;;;;;8.95;6.35;;;;;;;9.10;63.58;100124.31;5117066;22;20449;-72
2022/04/09 10:38:07;;;;;;;16.48;7.22;;;;;;;9.33;65.49;100121.84;5053100;28;20120;-70
2022/04/09 10:40:34;;;;;;;11.85;6.85;;;;;;;9.72;63.66;100121.09;5052871;28;20478;-71
2022/04/09 10:43:01;;;;;;;13.90;6.50;;;;;;;10.44;62.07;100113.00;5052415;28;20048;-71
2022/04/09 10:45:30;;;;;;;11.57;5.57;;;;;;;10.55;62.13;100123.22;5052642;28;20037;-71
2022/04/09 10:48:08;;;;;;;13.35;5.65;;;;;;;10.11;61.90;100129.09;5052767;28;20377;-71
2022/04/09 10:50:52;;;;;;;;;;;;;;;10.62;61.62;100126.00;5051792;28;20375;-71
2022/04/09 10:53:21;;;;;;;9.98;5.00;;;;;;;10.53;61.94;100114.59;5052364;28;19973;-72
2022/04/09 10:56:21;;;;;;;9.30;4.13;;;;;;;10.82;59.44;100113.88;5052545;28;20047;-71
2022/04/09 10:59:04;;;;;;;7.68;3.95;;;;;;;10.25;60.35;100119.59;5052537;28;20474;-71
2022/04/09 11:01:48;;;;;;;7.93;4.00;;;;;;;11.20;58.00;100109.41;5052280;28;20053;-72
2022/04/09 11:04:35;;;;;;;11.57;4.10;;;;;;;10.90;56.96;100107.69;5051079;28;20057;-72
2022/04/09 11:07:14;;;;;;;11.43;6.55;;;;;;;11.16;57.30;100108.13;5052925;28;20040;-71
2022/04/09 11:09:56;;;;;;;10.15;5.45;;;;;;;11.66;59.12;100107.44;5052501;28;20098;-71
2022/04/09 11:12:38;;;;;;;12.18;4.63;;;;;;;12.10;56.05;100103.97;5052222;28;20033;-71
2022/04/09 11:15:08;;;;;;;8.85;4.20;;;;;;;13.28;52.64;100095.50;5052325;28;20044;-71
2022/04/09 11:17:40;;;;;;;10.85;3.92;;;;;;;12.63;50.94;100091.19;5052425;28;20037;-72
2022/04/09 11:20:21;;;;;;;9.82;4.25;;;;;;;11.87;52.64;100105.94;5052406;28;20078;-72
2022/04/09 11:22:52;;;;;;;10.55;4.70;;;;;;;11.57;53.59;100094.38;5052205;28;20056;-70
2022/04/09 11:25:28;;;;;;;7.72;3.60;;;;;;;11.12;54.04;100107.66;5052043;28;20036;-71
2022/04/09 11:28:17;;;;;;;6.03;3.30;;;;;;;11.48;52.07;100100.84;5052069;28;20094;-71
2022/04/09 11:30:59;;;;;;;10.32;4.65;;;;;;;11.91;51.73;100104.53;5052008;28;20446;-71
2022/04/09 11:33:25;;;;;;;10.63;3.80;;;;;;;12.21;51.53;100102.66;5034113;28;20142;-72
2022/04/09 11:35:51;;;;;;;8.15;4.00;;;;;;;13.00;50.70;100099.97;5050537;28;20037;-71
2022/04/09 11:38:17;;;;;;;10.68;3.40;;;;;;;12.84;50.43;100097.56;5052209;28;20029;-73
2022/04/09 11:40:46;;;;;;;8.65;3.00;;;;;;;12.88;48.50;100110.34;5034446;28;20527;-72
2022/04/09 11:43:16;;;;;;;5.88;2.97;;;;;;;13.13;46.69;100102.78;5051435;28;20037;-72
2022/04/09 11:45:43;;;;;;;8.57;3.33;;;;;;;13.57;46.25;100099.84;5050553;28;20033;-72
2022/04/09 11:48:15;;;;;;;8.18;3.03;;;;;;;13.39;45.07;100099.50;5051738;28;20082;-72
2022/04/09 11:50:41;;;;;;;9.68;3.35;;;;;;;13.21;46.58;100109.84;5050563;28;20524;-70
2022/04/09 11:53:21;;;;;;;10.20;3.22;;;;;;;13.41;45.46;100116.19;5033880;28;20037;-70
2022/04/09 11:55:48;;;;;;;10.88;3.80;;;;;;;12.87;46.92;100108.72;5051479;28;20037;-72
2022/04/09 11:58:15;;;;;;;12.07;4.90;;;;;;;13.79;47.30;100105.09;5051454;28;20033;-70
2022/04/09 12:00:45;;;;;;;7.07;3.22;;;;;;;13.66;48.86;100103.19;5052275;28;20028;-71
2022/04/09 12:03:13;;;;;;;7.22;3.80;;;;;;;13.48;46.88;100105.53;5051106;28;20075;-72
2022/04/09 12:05:43;;;;;;;8.48;3.05;;;;;;;12.30;46.02;100111.38;5052452;28;20040;-72
2022/04/09 12:08:12;;;;;;;15.32;3.83;;;;;;;12.55;48.21;100110.03;5051305;28;20107;-71
2022/04/09 12:10:51;;;;;;;7.30;3.10;;;;;;;11.83;48.47;100107.31;5053325;28;20481;-78
2022/04/09 12:13:23;;;;;;;8.50;3.17;;;;;;;11.79;50.10;100097.97;5019859;28;20051;-77
2022/04/09 12:15:49;;;;;;;9.48;3.40;;;;;;;12.70;47.85;100091.25;5053997;28;20517;-78
2022/04/09 12:18:28;;;;;;;9.93;3.75;;;;;;;13.53;46.56;100092.38;5044451;28;20166;-79
2022/04/09 12:20:54;;;;;;;11.38;3.58;;;;;;;13.37;45.01;100084.69;5040870;28;20451;-77
2022/04/09 12:23:32;;;;;;;7.32;2.80;;;;;;;14.34;44.56;100095.25;5063887;28;20033;-78
2022/04/09 12:25:58;;;;;;;12.35;3.45;;;;;;;15.17;42.05;100090.47;5065039;28;20068;-76
2022/04/09 12:28:28;;;;;;;8.73;4.03;;;;;;;15.37;43.33;100093.13;5054765;28;20405;-77
2022/04/09 12:30:56;;;;;;;12.77;3.42;;;;;;;15.42;39.52;100091.47;5065436;28;20041;-78
2022/04/09 12:33:23;;;;;;;8.23;3.00;;;;;;;14.88;41.53;100089.03;5064394;28;20513;-77
2022/04/09 12:35:49;;;;;;;13.13;4.07;;;;;;;13.78;45.25;100101.59;5064649;28;20037;-78
2022/04/09 12:38:34;;;;;;;9.57;4.22;;;;;;;14.06;46.84;100095.34;5060739;28;20302;-78
2022/04/09 12:41:05;;;;;;;14.52;5.75;;;;;;;14.21;44.50;100101.38;5060387;28;20033;-79
2022/04/09 12:43:32;;;;;;;8.82;3.28;;;;;;;14.36;42.77;100085.16;5046113;28;20044;-79
2022/04/09 12:46:05;;;;;;;14.57;3.35;;;;;;;15.13;40.42;100087.38;5063889;28;20041;-80
2022/04/09 12:48:38;;;;;;;8.63;3.50;;;;;;;14.46;42.52;100096.34;5063018;28;20483;-78
2022/04/09 12:51:04;;;;;;;10.75;3.63;;;;;;;14.74;41.36;100085.50;5060317;28;20044;-78
2022/04/09 12:53:29;;;;;;;9.75;4.07;;;;;;;13.32;46.46;100090.59;5047557;28;20033;-78
2022/04/09 12:55:55;;;;;;;12.95;4.68;;;;;;;13.17;46.61;100100.53;5063373;28;20028;-78
2022/04/09 12:58:21;;;;;;;8.90;3.92;;;;;;;12.90;46.38;100092.28;5063753;28;20489;-79
2022/04/09 13:00:46;;;;;;;9.65;4.07;;;;;;;14.24;43.37;100087.59;5061020;28;20040;-77
2022/04/09 13:03:13;;;;;;;9.35;3.67;;;;;;;15.00;44.07;100089.25;5058887;28;20094;-78
2022/04/09 13:05:41;;;;;;;8.82;2.80;;;;;;;14.99;42.11;100068.78;5060013;28;20136;-79
2022/04/09 13:08:07;;;;;;;9.30;3.22;;;;;;;14.12;39.48;100083.84;5062479;28;20386;-77
2022/04/09 13:10:34;;;;;;;7.68;3.35;;;;;;;14.36;41.53;100083.31;5063161;28;20036;-77
2022/04/09 13:13:00;;;;;;;7.35;3.08;;;;;;;15.22;41.08;100079.94;5064635;28;20104;-78
2022/04/09 13:15:26;;;;;;;8.80;3.20;;;;;;;15.28;38.84;100076.44;5071031;28;20041;-78
2022/04/09 13:17:52;;;;;;;10.57;3.08;;;;;;;16.40;37.72;100069.88;5065297;28;20032;-78
2022/04/09 13:20:18;;;;;;;8.73;3.08;;;;;;;17.05;36.22;100064.31;5065464;28;20134;-78
2022/04/09 13:22:44;;;;;;;8.07;2.92;;;;;;;16.42;36.21;100062.44;5045986;28;20047;-79
2022/04/09 13:25:12;;;;;;;9.13;2.92;;;;;;;16.44;35.32;100055.00;5065317;28;20052;-80
2022/04/09 13:27:38;;;;;;;;;;;;;;;16.26;37.05;100060.25;5047756;28;20045;-79
2022/04/09 13:30:04;;;;;;;5.85;2.90;;;;;;;16.13;37.38;100052.25;5030224;28;19923;-78
2022/04/09 13:32:30;;;;;;;7.30;3.08;;;;;;;16.76;37.42;100041.56;5067942;28;20037;-80
2022/04/09 13:34:56;;;;;;;12.40;3.35;;;;;;;17.02;37.47;100040.53;5054993;28;20389;-73
2022/04/09 13:37:22;;;;;;;6.63;2.70;;;;;;;16.64;36.95;100052.19;5052583;28;20041;-72
2022/04/09 13:39:48;;;;;;;8.48;2.95;;;;;;;17.05;37.34;100035.53;5054062;28;20124;-73
2022/04/09 13:42:14;;;;;;;10.75;2.60;;;;;;;17.22;35.01;100043.06;5052463;28;20127;-72
2022/04/09 13:44:43;;;;;;;5.25;2.83;;;;;;;17.33;32.23;100023.47;5054035;28;20032;-73
2022/04/09 13:47:10;;;;;;;7.43;3.08;;;;;;;17.28;33.74;100028.72;5053847;28;20143;-73
2022/04/09 13:49:36;;;;;;;10.73;2.95;;;;;;;16.70;32.88;100032.50;5054073;28;20112;-72
2022/04/09 13:52:03;;;;;;;12.77;4.65;;;;;;;16.21;32.45;100039.38;5053786;28;20040;-72
2022/04/09 13:54:31;;;;;;;8.55;3.17;;;;;;;15.99;33.93;100030.84;5053568;28;20497;-73
2022/04/09 13:56:57;;;;;;;9.70;3.58;;;;;;;15.51;36.02;100027.66;5055853;28;20063;-74
2022/04/09 13:59:23;;;;;;;6.82;2.58;;;;;;;15.13;35.82;100030.22;5053859;28;20041;-72
2022/04/09 14:01:49;;;;;;;9.57;2.50;;;;;;;15.30;35.70;100025.22;5051883;28;20044;-72
2022/04/09 14:04:14;;;;;;;4.68;2.63;;;;;;;14.28;37.98;100029.91;5053578;28;20041;-72
2022/04/09 14:06:40;;;;;;;10.40;3.42;;;;;;;13.92;40.59;100042.78;5053402;28;20052;-73
2022/04/09 14:09:06;;;;;;;6.97;2.90;;;;;;;13.22;40.96;100037.44;5053614;28;20029;-73
2022/04/09 14:11:31;;;;;;;6.93;3.10;;;;;;;13.11;41.81;100027.28;5053215;28;20452;-73
2022/04/09 14:13:57;;;;;;;8.07;3.10;;;;;;;13.01;41.32;100030.28;5052075;28;20075;-72
2022/04/09 14:16:23;;;;;;;16.55;3.90;;;;;;;12.67;42.73;100043.56;5053328;28;20405;-73
2022/04/09 14:18:49;;;;;;;13.73;4.13;;;;;;;12.71;44.02;100036.78;5053349;28;20040;-72
2022/04/09 14:21:15;;;;;;;10.85;3.55;;;;;;;12.37;45.63;100032.97;5053151;28;20040;-72
2022/04/09 14:23:41;;;;;;;14.05;3.05;;;;;;;12.26;43.90;100036.19;5053116;28;20045;-73
2022/04/09 14:26:08;;;;;;;12.82;3.88;;;;;;;12.46;44.86;100037.19;5051737;28;20045;-73
2022/04/09 14:28:33;;;;;;;7.90;3.53;;;;;;;12.54;42.68;100033.56;5051951;28;20036;-72
2022/04/09 14:30:59;;;;;;;11.05;3.28;;;;;;;12.21;42.92;100047.41;5053109;28;20037;-72
2022/04/09 14:33:25;;;;;;;6.50;3.47;;;;;;;12.09;45.39;100046.25;5051421;28;20044;-72
2022/04/09 14:35:51;;;;;;;6.93;3.42;;;;;;;11.92;45.88;100040.28;5052779;28;20045;-72
2022/04/09 14:38:20;;;;;;;7.10;2.60;;;;;;;11.78;45.69;100042.94;5035155;28;20048;-72
2022/04/09 14:40:46;;;;;;;10.38;2.97;;;;;;;11.56;47.43;100048.22;5051541;28;20044;-71
2022/04/09 14:43:11;;;;;;;8.10;3.38;;;;;;;11.56;46.56;100042.88;5052635;28;20406;-72
2022/04/09 14:45:37;;;;;;;8.77;2.80;;;;;;;11.61;47.65;100045.81;5052931;28;20033;-72
2022/04/09 14:48:04;;;;;;;10.88;3.25;;;;;;;11.76;45.44;100048.47;5053006;28;20037;-72
2022/04/09 14:50:30;;;;;;;8.43;2.45;;;;;;;11.89;43.86;100037.19;5052871;28;20037;-72
2022/04/09 14:52:58;;;;;;;9.55;2.75;;;;;;;11.43;45.44;100044.53;5052550;28;20040;-71
2022/04/09 14:55:23;;;;;;;7.80;3.10;;;;;;;11.38;43.58;100045.91;5052771;28;20036;-72
2022/04/09 14:57:49;;;;;;;9.73;3.45;;;;;;;11.44;43.31;100049.69;5052782;28;20366;-71
2022/04/09 15:00:15;;;;;;;4.25;1.80;;;;;;;11.27;42.72;100043.69;5052653;28;20115;-72
2022/04/09 15:02:41;;;;;;;8.35;2.30;;;;;;;11.31;43.19;100047.66;5052195;28;20124;-71
2022/04/09 15:05:08;;;;;;;5.65;2.60;;;;;;;11.25;42.22;100052.88;5051437;28;20041;-72
2022/04/09 15:07:34;;;;;;;9.65;2.40;;;;;;;11.14;43.35;100041.63;5053434;28;20055;-72
2022/04/09 15:10:02;;;;;;;7.85;2.45;;;;;;;10.98;42.64;100040.97;5052580;28;20398;-72
2022/04/09 15:12:29;;;;;;;5.65;2.85;;;;;;;11.03;41.64;100043.94;5052067;28;20041;-72
2022/04/09 15:14:55;;;;;;;4.63;2.45;;;;;;;10.75;41.56;100046.34;5052249;28;20593;-72
2022/04/09 15:17:20;;;;;;;4.32;2.55;;;;;;;10.73;41.40;100053.69;5050863;28;20041;-71
2022/04/09 15:19:46;;;;;;;9.05;2.88;;;;;;;10.52;42.72;100057.00;5052226;28;20037;-71
2022/04/09 15:22:12;;;;;;;11.52;2.30;;;;;;;10.39;43.51;100046.13;5051852;28;20040;-73
2022/04/09 15:24:38;;;;;;;7.90;2.50;;;;;;;10.59;44.07;100048.13;5034230;28;20044;-72
2022/04/09 15:27:04;;;;;;;6.32;1.90;;;;;;;10.84;44.42;100053.28;5052115;28;20039;-71
2022/04/09 15:29:31;;;;;;;4.43;1.85;;;;;;;10.98;43.40;100041.81;5051985;28;20037;-72
2022/04/09 15:31:58;;;;;;;5.38;2.15;;;;;;;10.99;42.56;100050.63;5051707;28;20037;-70
2022/04/09 15:34:23;;;;;;;7.82;3.58;;;;;;;11.00;43.15;100060.28;5050877;28;20037;-72
2022/04/09 15:36:49;;;;;;;6.15;2.15;;;;;;;10.58;41.82;100048.31;5051699;28;20040;-71
2022/04/09 15:39:15;;;;;;;5.13;2.03;;;;;;;10.72;43.15;100060.84;5050577;28;20040;-70
2022/04/09 15:41:40;;;;;;;8.02;2.22;;;;;;;10.75;43.82;100064.97;5051636;28;20090;-71
2022/04/09 15:44:06;;;;;;;6.00;2.50;;;;;;;10.84;42.04;100059.41;5050350;28;20501;-70
2022/04/09 15:46:33;;;;;;;8.20;2.22;;;;;;;10.95;41.86;100073.31;5050347;28;20037;-70
2022/04/09 15:48:58;;;;;;;6.35;2.35;;;;;;;10.75;42.39;100064.97;5051869;28;20510;-70